Time;durP1;ratioP1;P1;durP2;ratioP2;P2;SDS_P1;SDS_P2;PMS_P1;PMS_P2;Temp;Humidity;BMP_temperature;BMP_pressure;BME280_temperature;BME280_humidity;BME280_pressure;Samples;Min_cycle;Max_cycle;Signal;HPM_P1;HPM_P2
2021/11/17 02:27:13;;;;;;;15.47;10.27;;;7.30;99.90;;;;;;5027742;28;20436;-36
2021/11/17 02:30:04;;;;;;;14.80;9.50;;;7.40;99.90;;;;;;5013742;28;20576;-36
2021/11/17 02:32:51;;;;;;;16.60;10.10;;;7.40;99.90;;;;;;5012999;28;20433;-36
2021/11/17 02:35:35;;;;;;;14.97;10.10;;;7.40;99.90;;;;;;5010394;28;20467;-36
2021/11/17 02:38:25;;;;;;;19.50;11.50;;;7.40;99.90;;;;;;5011680;28;20444;-36
2021/11/17 02:40:59;;;;;;;20.17;12.27;;;7.30;99.90;;;;;;5024342;28;20428;-36
2021/11/17 02:43:35;;;;;;;17.27;12.07;;;7.30;99.90;;;;;;5015062;28;20452;-36
2021/11/17 02:46:12;;;;;;;17.60;10.53;;;6.90;99.90;;;;;;5026533;28;20566;-36
2021/11/17 02:49:23;;;;;;;18.77;10.67;;;7.10;99.90;;;;;;5028536;28;20424;-36
2021/11/17 02:51:49;;;;;;;17.10;10.37;;;7.30;99.90;;;;;;5009009;28;20988;-36
2021/11/17 02:54:32;;;;;;;19.40;10.30;;;7.00;99.90;;;;;;5017423;28;20453;-36
2021/11/17 02:57:18;;;;;;;16.37;9.73;;;7.10;99.90;;;;;;5020265;28;20414;-36
2021/11/17 02:59:59;;;;;;;16.80;10.40;;;7.30;99.90;;;;;;5009790;28;20454;-36
2021/11/17 03:03:09;;;;;;;14.77;9.57;;;7.00;99.90;;;;;;5016405;28;20445;-36
2021/11/17 03:05:34;;;;;;;15.83;9.13;;;6.90;99.90;;;;;;5006093;28;20462;-36
2021/11/17 03:08:07;;;;;;;13.93;8.87;;;6.80;99.90;;;;;;5010791;28;20908;-36
2021/11/17 03:11:14;;;;;;;16.60;10.07;;;7.20;99.90;;;;;;5019439;28;20441;-36
2021/11/17 03:13:49;;;;;;;15.13;8.63;;;6.90;99.90;;;;;;5019707;28;20430;-36
2021/11/17 03:16:23;;;;;;;14.37;9.90;;;6.90;99.90;;;;;;5012079;28;20830;-36
2021/11/17 03:19:06;;;;;;;14.20;8.47;;;7.00;99.90;;;;;;5009139;28;20425;-36
2021/11/17 03:21:41;;;;;;;17.07;8.03;;;6.80;99.90;;;;;;5008160;28;20824;-36
2021/11/17 03:24:28;;;;;;;12.80;8.10;;;7.00;99.90;;;;;;5019453;28;20432;-36
2021/11/17 03:27:01;;;;;;;12.20;8.60;;;6.90;99.90;;;;;;5022007;28;20557;-36
2021/11/17 03:30:13;;;;;;;14.70;8.57;;;6.80;99.90;;;;;;5013708;28;20445;-36
2021/11/17 03:32:47;;;;;;;14.00;9.47;;;6.90;99.90;;;;;;5020366;28;20440;-36
2021/11/17 03:35:50;;;;;;;12.80;8.63;;;6.70;99.90;;;;;;5025544;28;20468;-36
2021/11/17 03:38:51;;;;;;;14.30;8.63;;;6.50;99.90;;;;;;5021982;28;20445;-36
2021/11/17 03:41:26;;;;;;;14.83;9.00;;;6.50;99.90;;;;;;5009455;28;20871;-36
2021/11/17 03:44:25;;;;;;;14.60;8.80;;;6.50;99.90;;;;;;5012127;28;20421;-36
2021/11/17 03:47:10;;;;;;;13.83;8.70;;;6.50;99.90;;;;;;5026538;28;20441;-36
2021/11/17 03:49:59;;;;;;;12.13;8.47;;;6.60;99.90;;;;;;5008532;28;20508;-36
2021/11/17 03:52:43;;;;;;;14.23;8.57;;;6.40;99.90;;;;;;5008634;28;20422;-36
2021/11/17 03:55:42;;;;;;;15.63;9.53;;;6.70;99.90;;;;;;5018105;28;21007;-36
2021/11/17 03:58:48;;;;;;;16.57;8.97;;;6.30;99.90;;;;;;5018661;28;20453;-36
2021/11/17 04:01:39;;;;;;;18.83;9.90;;;6.60;99.90;;;;;;5008131;28;20875;-36
2021/11/17 04:04:22;;;;;;;16.23;10.27;;;6.60;99.90;;;;;;5027551;28;20417;-36
2021/11/17 04:06:54;;;;;;;15.90;9.93;;;6.70;99.90;;;;;;5027685;28;20429;-36
2021/11/17 04:10:00;;;;;;;14.40;9.23;;;6.40;99.90;;;;;;5020732;28;20434;-36
2021/11/17 04:12:54;;;;;;;16.60;9.90;;;6.50;99.90;;;;;;5012511;28;20421;-36
2021/11/17 04:15:41;;;;;;;16.23;10.90;;;6.60;99.90;;;;;;5008066;28;20458;-36
2021/11/17 04:19:02;;;;;;;20.53;12.70;;;6.40;99.90;;;;;;5019876;28;20417;-36
2021/11/17 04:21:40;;;;;;;21.50;12.00;;;6.70;99.90;;;;;;4999614;28;20434;-36
2021/11/17 04:24:24;;;;;;;17.90;10.80;;;6.50;99.90;;;;;;5015110;28;20429;-36
2021/11/17 04:26:56;;;;;;;18.70;12.73;;;6.60;99.90;;;;;;5015218;28;20418;-36
2021/11/17 04:29:44;;;;;;;21.30;11.87;;;6.80;99.90;;;;;;5010476;28;20410;-36
2021/11/17 04:32:29;;;;;;;21.00;12.83;;;6.80;99.90;;;;;;5012468;28;20504;-36
2021/11/17 04:35:19;;;;;;;18.80;11.10;;;6.70;99.90;;;;;;5007289;28;20464;-36
2021/11/17 04:37:48;;;;;;;19.10;11.90;;;7.00;99.90;;;;;;5006255;28;20864;-36
2021/11/17 04:40:25;;;;;;;22.10;12.93;;;6.80;99.90;;;;;;5019027;28;20558;-36
2021/11/17 04:43:06;;;;;;;22.37;14.03;;;6.90;99.90;;;;;;5022620;28;20550;-36
2021/11/17 04:45:59;;;;;;;20.90;12.07;;;6.90;99.90;;;;;;5027119;28;20507;-36
2021/11/17 04:48:28;;;;;;;19.70;12.53;;;6.90;99.90;;;;;;5026577;28;20800;-36
2021/11/17 04:51:06;;;;;;;19.37;11.83;;;7.00;99.90;;;;;;5009049;28;20414;-36
2021/11/17 04:53:37;;;;;;;24.03;13.70;;;6.80;99.90;;;;;;5007532;28;20429;-36
2021/11/17 04:56:09;;;;;;;24.37;13.80;;;6.70;99.90;;;;;;5016576;28;20726;-36
2021/11/17 04:58:47;;;;;;;21.43;13.90;;;6.80;99.90;;;;;;5018565;28;20418;-36
2021/11/17 05:01:22;;;;;;;22.70;13.13;;;6.80;99.90;;;;;;5006690;28;20418;-36
2021/11/17 05:04:15;;;;;;;18.73;12.23;;;7.00;99.90;;;;;;5017768;28;20414;-36
2021/11/17 05:06:55;;;;;;;22.60;12.67;;;6.60;99.90;;;;;;5007535;28;20417;-36
2021/11/17 05:09:48;;;;;;;21.40;13.27;;;6.60;99.90;;;;;;5008596;28;20438;-36
2021/11/17 05:12:41;;;;;;;22.47;13.23;;;6.60;99.90;;;;;;5018618;28;20428;-36
2021/11/17 05:15:27;;;;;;;22.63;12.97;;;6.50;99.90;;;;;;5006899;28;20740;-36
2021/11/17 05:18:25;;;;;;;22.03;13.40;;;6.50;99.90;;;;;;5013648;28;20455;-36
2021/11/17 05:21:15;;;;;;;19.80;12.23;;;6.50;99.90;;;;;;5001993;28;20425;-36
2021/11/17 05:23:47;;;;;;;22.87;14.30;;;6.60;99.90;;;;;;5018906;28;20894;-36
2021/11/17 05:26:37;;;;;;;20.07;12.80;;;6.70;99.90;;;;;;5021479;28;20422;-36
2021/11/17 05:29:05;;;;;;;19.70;12.90;;;6.70;99.90;;;;;;5023438;28;20487;-35
2021/11/17 05:32:05;;;;;;;21.73;12.33;;;6.70;99.90;;;;;;5014035;28;20418;-36
2021/11/17 05:35:01;;;;;;;19.43;13.10;;;6.90;99.90;;;;;;5015597;28;20488;-35
2021/11/17 05:37:44;;;;;;;23.70;12.60;;;6.70;99.90;;;;;;5013683;28;20844;-36
2021/11/17 05:40:26;;;;;;;20.50;13.10;;;6.80;99.90;;;;;;5017078;28;20557;-36
2021/11/17 05:42:52;;;;;;;25.20;14.17;;;6.50;99.90;;;;;;5026386;28;20460;-36
2021/11/17 05:45:40;;;;;;;23.00;14.27;;;6.60;99.90;;;;;;5026634;28;20435;-36
2021/11/17 05:48:15;;;;;;;24.20;12.53;;;6.90;99.90;;;;;;5024750;28;20456;-36
2021/11/17 05:51:02;;;;;;;23.33;13.77;;;6.60;99.90;;;;;;5013902;28;20421;-36
2021/11/17 05:54:01;;;;;;;20.63;12.40;;;6.90;99.90;;;;;;5028415;28;20428;-35
2021/11/17 05:56:35;;;;;;;22.10;13.57;;;6.90;99.90;;;;;;5017759;28;20488;-36
2021/11/17 05:59:19;;;;;;;23.57;13.90;;;6.90;99.90;;;;;;5018092;28;20472;-36
2021/11/17 06:02:12;;;;;;;24.40;13.00;;;6.80;99.90;;;;;;5022840;28;20939;-36
2021/11/17 06:04:37;;;;;;;24.13;13.23;;;6.90;99.90;;;;;;5029842;28;20421;-35
2021/11/17 06:07:03;;;;;;;27.73;14.50;;;6.80;99.90;;;;;;5023767;28;20476;-36
2021/11/17 06:09:28;;;;;;;24.40;13.70;;;6.70;99.90;;;;;;5022432;28;20187;-36
2021/11/17 06:12:00;;;;;;;24.07;14.47;;;6.80;99.90;;;;;;5025550;28;20190;-36
2021/11/17 06:14:31;;;;;;;20.10;12.80;;;6.80;99.90;;;;;;5028280;28;20588;-36
2021/11/17 06:17:13;;;;;;;25.70;14.33;;;6.80;99.90;;;;;;5029484;28;20417;-36
2021/11/17 06:19:42;;;;;;;23.37;13.30;;;7.00;99.90;;;;;;5023678;28;20408;-36
2021/11/17 06:22:10;;;;;;;26.07;15.03;;;7.00;99.90;;;;;;5024962;28;20640;-36
2021/11/17 06:24:37;;;;;;;22.93;13.20;;;7.00;99.90;;;;;;5014795;28;20433;-36
2021/11/17 06:27:06;;;;;;;22.53;13.93;;;7.10;99.90;;;;;;5023894;28;20553;-36
2021/11/17 06:29:37;;;;;;;25.47;13.47;;;7.00;99.90;;;;;;5026093;28;20512;-36
2021/11/17 06:32:04;;;;;;;25.57;13.97;;;6.90;99.90;;;;;;5009246;28;20754;-36
2021/11/17 06:34:41;;;;;;;26.70;15.20;;;6.90;99.90;;;;;;5009399;28;20422;-36
2021/11/17 06:37:16;;;;;;;24.83;13.03;;;6.80;99.90;;;;;;5009943;28;20898;-35
2021/11/17 06:39:44;;;;;;;23.03;13.93;;;6.80;99.90;;;;;;5018494;28;20428;-36
2021/11/17 06:42:15;;;;;;;29.47;13.27;;;6.60;99.90;;;;;;5028710;28;20991;-35
2021/11/17 06:44:41;;;;;;;25.97;14.47;;;6.70;99.90;;;;;;5022934;28;20445;-36
2021/11/17 06:47:08;;;;;;;24.63;14.17;;;6.60;99.90;;;;;;5028120;28;20778;-36
2021/11/17 06:49:34;;;;;;;26.43;14.40;;;6.70;99.90;;;;;;5014255;28;20915;-36
2021/11/17 06:51:59;;;;;;;24.30;14.40;;;6.80;99.90;;;;;;5009805;28;20433;-36
2021/11/17 06:54:25;;;;;;;22.47;14.53;;;6.70;99.90;;;;;;5013765;28;20665;-36
2021/11/17 06:56:51;;;;;;;25.60;14.70;;;6.90;99.90;;;;;;5022525;28;20205;-36
2021/11/17 06:59:16;;;;;;;25.07;13.80;;;6.60;99.90;;;;;;5021993;28;20194;-36
2021/11/17 07:01:42;;;;;;;22.83;12.90;;;6.70;99.90;;;;;;5028893;28;20372;-36
2021/11/17 07:04:08;;;;;;;23.50;13.87;;;6.60;99.90;;;;;;5029037;28;20185;-36
2021/11/17 07:06:34;;;;;;;22.60;13.80;;;6.70;99.90;;;;;;5028318;28;20182;-36
2021/11/17 07:09:00;;;;;;;23.53;14.20;;;6.60;99.90;;;;;;5027126;28;20433;-35
2021/11/17 07:11:26;;;;;;;26.10;15.27;;;6.70;99.90;;;;;;5021390;28;20464;-36
2021/11/17 07:13:51;;;;;;;22.57;13.50;;;6.70;99.90;;;;;;5019078;28;20187;-36
2021/11/17 07:16:18;;;;;;;24.77;13.83;;;6.70;99.90;;;;;;5022570;28;20222;-36
2021/11/17 07:18:44;;;;;;;22.97;13.37;;;7.00;99.90;;;;;;5025168;28;20201;-36
2021/11/17 07:21:10;;;;;;;22.27;13.57;;;6.90;99.90;;;;;;5020749;28;20924;-36
2021/11/17 07:23:36;;;;;;;22.30;12.80;;;7.00;99.90;;;;;;5041931;28;20260;-36
2021/11/17 07:26:03;;;;;;;20.20;13.03;;;7.30;99.90;;;;;;5023487;28;20512;-37
2021/11/17 07:28:30;;;;;;;19.27;11.70;;;7.20;99.90;;;;;;5016283;28;20197;-36
2021/11/17 07:30:56;;;;;;;21.03;12.60;;;7.20;99.90;;;;;;5010761;28;20426;-36
2021/11/17 07:33:21;;;;;;;21.43;13.33;;;7.30;99.90;;;;;;5009678;28;20815;-36
2021/11/17 07:35:50;;;;;;;23.53;14.00;;;7.50;99.90;;;;;;5032220;28;20467;-36
2021/11/17 07:38:20;;;;;;;26.00;13.93;;;7.50;99.90;;;;;;5029974;28;20675;-36
2021/11/17 07:40:46;;;;;;;25.73;12.67;;;7.50;99.90;;;;;;5013472;28;20797;-36
2021/11/17 07:43:16;;;;;;;21.27;13.27;;;7.40;99.90;;;;;;5012933;28;20500;-36
2021/11/17 07:45:42;;;;;;;19.47;12.23;;;7.50;99.90;;;;;;5025444;28;20447;-36
2021/11/17 07:48:10;;;;;;;24.10;14.30;;;7.50;99.90;;;;;;5016215;28;20479;-36
2021/11/17 07:50:35;;;;;;;21.63;13.40;;;7.10;99.90;;;;;;5008156;28;20932;-36
2021/11/17 07:53:01;;;;;;;25.83;14.60;;;7.50;99.90;;;;;;5016058;28;20428;-36
2021/11/17 07:55:28;;;;;;;23.10;13.70;;;7.40;99.90;;;;;;5033226;28;20214;-36
2021/11/17 07:57:54;;;;;;;20.07;13.23;;;7.30;99.90;;;;;;5022707;28;20788;-36
2021/11/17 08:00:26;;;;;;;20.10;12.80;;;7.40;99.90;;;;;;5034971;28;20449;-36
2021/11/17 08:02:52;;;;;;;21.57;12.77;;;7.40;99.90;;;;;;5032038;28;20993;-36
2021/11/17 08:05:21;;;;;;;20.67;14.00;;;7.60;99.90;;;;;;5031908;28;20446;-36
2021/11/17 08:07:47;;;;;;;22.47;14.50;;;7.30;99.90;;;;;;5034174;28;20413;-36
2021/11/17 08:10:20;;;;;;;20.83;13.70;;;7.50;99.90;;;;;;5013263;28;20437;-36
2021/11/17 08:12:46;;;;;;;22.80;14.07;;;7.50;99.90;;;;;;5015221;28;20515;-36
2021/11/17 08:15:12;;;;;;;22.00;14.73;;;7.50;99.90;;;;;;5012210;28;20457;-36
2021/11/17 08:17:41;;;;;;;23.63;13.90;;;7.60;99.90;;;;;;5008233;28;20301;-36
2021/11/17 08:20:12;;;;;;;24.33;15.07;;;7.50;99.90;;;;;;5017038;28;20450;-36
2021/11/17 08:22:38;;;;;;;21.30;14.30;;;7.80;99.90;;;;;;5007770;28;20924;-36
2021/11/17 08:25:04;;;;;;;29.83;17.30;;;7.50;99.90;;;;;;5012795;28;20421;-36
2021/11/17 08:27:30;;;;;;;31.67;15.03;;;7.70;99.90;;;;;;5022856;28;20422;-36
2021/11/17 08:29:57;;;;;;;22.40;15.30;;;7.90;99.90;;;;;;5026663;28;20784;-36
2021/11/17 08:32:23;;;;;;;26.33;16.50;;;7.80;99.90;;;;;;5014198;28;20190;-36
2021/11/17 08:34:49;;;;;;;24.87;15.43;;;7.70;99.90;;;;;;5014624;28;20458;-36
2021/11/17 08:37:16;;;;;;;26.83;16.00;;;7.70;99.90;;;;;;5007492;28;20330;-36
2021/11/17 08:39:43;;;;;;;25.40;16.40;;;7.80;99.90;;;;;;5007735;28;20419;-36
2021/11/17 08:42:11;;;;;;;23.50;15.30;;;7.80;99.90;;;;;;5018596;28;20478;-36
2021/11/17 08:44:40;;;;;;;22.50;14.60;;;7.80;99.90;;;;;;5022586;28;20417;-36
2021/11/17 08:47:08;;;;;;;21.50;14.70;;;7.90;99.90;;;;;;5022946;28;20420;-36
2021/11/17 08:49:34;;;;;;;21.13;13.67;;;7.80;99.90;;;;;;5007668;28;20794;-36
2021/11/17 08:52:01;;;;;;;20.00;13.60;;;7.80;99.90;;;;;;5007550;28;20505;-36
2021/11/17 08:54:28;;;;;;;20.30;13.80;;;7.90;99.90;;;;;;5006526;28;20422;-36
2021/11/17 08:56:55;;;;;;;20.97;14.07;;;7.80;99.90;;;;;;5011185;28;20449;-36
2021/11/17 08:59:23;;;;;;;19.33;13.47;;;7.80;99.90;;;;;;5021966;28;20840;-36
2021/11/17 09:01:49;;;;;;;18.70;12.90;;;8.10;99.90;;;;;;5007561;28;20406;-36
2021/11/17 09:04:14;;;;;;;19.97;13.10;;;7.90;99.90;;;;;;5011565;28;20466;-36
2021/11/17 09:06:41;;;;;;;19.97;13.50;;;8.10;99.90;;;;;;5012271;28;20191;-36
2021/11/17 09:09:07;;;;;;;17.80;13.20;;;8.10;99.90;;;;;;5007161;28;20667;-36
2021/11/17 09:11:35;;;;;;;18.67;13.40;;;8.10;99.90;;;;;;5011849;28;20438;-36
2021/11/17 09:14:01;;;;;;;18.50;13.03;;;8.10;99.90;;;;;;5019558;28;20774;-36
2021/11/17 09:16:30;;;;;;;19.40;12.93;;;8.20;99.90;;;;;;5011967;28;20469;-36
2021/11/17 09:19:00;;;;;;;18.60;12.40;;;8.50;99.90;;;;;;5007882;28;20419;-36
2021/11/17 09:21:27;;;;;;;19.70;12.17;;;8.40;99.90;;;;;;5011195;28;20446;-36
2021/11/17 09:23:53;;;;;;;18.20;13.50;;;8.50;99.90;;;;;;5006285;28;20921;-36
2021/11/17 09:26:22;;;;;;;18.57;12.30;;;8.30;99.90;;;;;;5008076;28;20569;-36
2021/11/17 09:28:49;;;;;;;18.10;12.03;;;8.40;99.90;;;;;;5025131;28;20421;-36
2021/11/17 09:31:15;;;;;;;18.70;11.73;;;8.30;99.90;;;;;;5019834;28;20469;-36
2021/11/17 09:33:45;;;;;;;16.60;11.87;;;8.40;99.90;;;;;;5006436;28;20485;-36
2021/11/17 09:36:13;;;;;;;16.70;10.80;;;8.30;99.90;;;;;;5007958;28;20461;-36
2021/11/17 09:38:39;;;;;;;19.63;12.03;;;8.50;99.90;;;;;;5007082;28;20422;-36
2021/11/17 09:41:10;;;;;;;18.57;12.73;;;8.50;99.90;;;;;;5006243;28;20640;-36
2021/11/17 09:43:39;;;;;;;16.27;11.30;;;8.30;99.90;;;;;;5011414;28;20425;-36
2021/11/17 09:46:07;;;;;;;16.23;11.17;;;8.30;99.90;;;;;;5018509;28;20437;-36
2021/11/17 09:48:39;;;;;;;17.67;11.03;;;8.30;99.90;;;;;;5018571;28;20421;-36
2021/11/17 09:51:10;;;;;;;19.67;12.20;;;8.50;99.90;;;;;;5006708;28;20429;-36
2021/11/17 09:53:53;;;;;;;16.80;11.60;;;8.30;99.90;;;;;;5006673;28;20426;-36
2021/11/17 09:56:33;;;;;;;16.97;11.23;;;8.40;99.90;;;;;;5010372;28;20501;-36
2021/11/17 09:59:06;;;;;;;19.37;11.87;;;8.20;99.90;;;;;;5019786;28;20428;-36
2021/11/17 10:01:42;;;;;;;18.43;11.80;;;8.50;99.90;;;;;;5025746;28;20417;-36
2021/11/17 10:04:32;;;;;;;17.53;12.03;;;8.50;99.90;;;;;;5006050;28;20444;-36
2021/11/17 10:13:09;;;;;;;15.80;11.00;;;8.20;99.90;;;;;;5021845;28;20479;-36
2021/11/17 10:15:38;;;;;;;17.50;11.17;;;8.10;99.90;;;;;;5022636;28;20523;-36
2021/11/17 10:18:16;;;;;;;18.50;11.60;;;8.20;99.90;;;;;;5010400;28;20422;-36
2021/11/17 10:20:48;;;;;;;16.00;10.40;;;8.30;99.90;;;;;;5010513;28;20487;-36
2021/11/17 10:23:24;;;;;;;20.53;12.50;;;8.30;99.90;;;;;;5009525;28;20504;-36
2021/11/17 10:25:54;;;;;;;20.60;11.73;;;8.30;99.90;;;;;;5010358;28;20831;-36
2021/11/17 10:28:40;;;;;;;15.47;10.83;;;8.40;99.90;;;;;;5021441;28;20812;-36
2021/11/17 10:31:20;;;;;;;17.60;12.20;;;8.30;99.90;;;;;;5014207;28;20479;-36
2021/11/17 10:33:58;;;;;;;18.07;11.83;;;8.20;99.90;;;;;;5009400;28;20445;-36
2021/11/17 10:36:48;;;;;;;17.13;11.97;;;8.20;99.90;;;;;;5019610;28;20464;-36
2021/11/17 10:39:21;;;;;;;15.73;11.37;;;8.40;99.90;;;;;;5009501;28;20422;-36
2021/11/17 10:41:58;;;;;;;16.77;11.40;;;8.30;99.90;;;;;;5013869;28;20436;-36
2021/11/17 10:44:41;;;;;;;18.57;12.30;;;8.40;99.90;;;;;;5021257;28;20456;-36
2021/11/17 10:47:24;;;;;;;18.43;12.57;;;8.60;99.90;;;;;;5008699;28;20422;-36
2021/11/17 10:50:04;;;;;;;23.00;12.37;;;8.50;99.90;;;;;;5021439;28;20537;-36
2021/11/17 10:52:32;;;;;;;19.10;11.70;;;8.40;99.90;;;;;;5010864;28;20441;-36
2021/11/17 10:54:59;;;;;;;18.53;11.97;;;8.60;99.90;;;;;;5009144;28;20867;-36
2021/11/17 10:57:28;;;;;;;19.83;13.03;;;8.30;99.90;;;;;;5014483;28;20565;-36
2021/11/17 10:59:56;;;;;;;18.20;12.00;;;8.50;99.90;;;;;;5026466;28;20954;-36
2021/11/17 11:02:24;;;;;;;17.40;12.20;;;8.30;99.90;;;;;;5018671;28;20516;-36
2021/11/17 11:04:54;;;;;;;18.57;11.33;;;8.50;99.90;;;;;;5010078;28;20589;-36
2021/11/17 11:07:37;;;;;;;21.63;13.10;;;8.60;99.90;;;;;;5009566;28;20414;-36
2021/11/17 11:10:24;;;;;;;25.37;12.13;;;8.50;99.90;;;;;;5008092;28;20453;-36
2021/11/17 11:12:52;;;;;;;23.40;13.73;;;8.60;99.90;;;;;;5011318;28;20457;-36
2021/11/17 11:15:31;;;;;;;18.97;12.03;;;8.50;99.90;;;;;;5023610;28;20560;-36
2021/11/17 11:18:06;;;;;;;21.10;13.40;;;8.50;99.90;;;;;;5009486;28;20428;-36
2021/11/17 11:20:47;;;;;;;18.90;12.73;;;8.60;99.90;;;;;;5014253;28;20452;-36
2021/11/17 11:23:20;;;;;;;20.17;13.57;;;8.50;99.90;;;;;;5010302;28;20445;-36
2021/11/17 11:26:07;;;;;;;16.07;11.57;;;8.50;99.90;;;;;;5009342;28;20533;-36
2021/11/17 11:28:36;;;;;;;21.13;12.60;;;8.50;99.90;;;;;;5018280;28;20579;-36
2021/11/17 11:31:03;;;;;;;24.87;13.10;;;8.40;99.90;;;;;;5024766;28;20409;-36
2021/11/17 11:33:34;;;;;;;23.43;13.23;;;8.40;99.90;;;;;;5019098;28;21001;-36
2021/11/17 11:36:11;;;;;;;22.13;12.47;;;8.50;99.90;;;;;;5013777;28;20875;-36
2021/11/17 11:38:43;;;;;;;22.67;14.67;;;8.50;99.90;;;;;;5008905;28;20414;-36
2021/11/17 11:41:12;;;;;;;22.90;14.40;;;8.40;99.90;;;;;;5007531;28;20966;-36
2021/11/17 11:43:40;;;;;;;26.47;14.80;;;8.40;99.90;;;;;;5006547;28;20484;-36
2021/11/17 11:46:31;;;;;;;24.70;15.60;;;8.70;99.90;;;;;;5022078;28;20508;-36
2021/11/17 11:49:20;;;;;;;24.37;15.77;;;8.50;99.90;;;;;;5021085;28;20715;-36
2021/11/17 11:52:04;;;;;;;24.57;14.70;;;8.40;99.90;;;;;;5009887;28;20449;-36
2021/11/17 11:54:33;;;;;;;29.63;15.70;;;8.30;99.90;;;;;;5007619;28;20995;-36
2021/11/17 11:57:02;;;;;;;22.17;14.40;;;8.60;99.90;;;;;;5009598;28;20521;-36
2021/11/17 11:59:30;;;;;;;23.63;15.27;;;8.40;99.90;;;;;;5016593;28;20509;-36
2021/11/17 12:02:14;;;;;;;24.63;15.33;;;8.50;99.90;;;;;;5013712;28;20767;-36
2021/11/17 12:04:46;;;;;;;29.40;16.50;;;8.50;99.90;;;;;;5007660;28;20463;-36
2021/11/17 12:07:17;;;;;;;27.40;16.40;;;8.40;99.90;;;;;;5018446;28;20800;-36
2021/11/17 12:10:05;;;;;;;26.60;17.00;;;8.40;99.90;;;;;;5008819;28;20451;-37
2021/11/17 12:12:36;;;;;;;24.77;16.37;;;8.40;99.90;;;;;;5017328;28;20452;-36
2021/11/17 12:15:14;;;;;;;27.13;16.57;;;8.50;99.90;;;;;;5015776;28;20461;-36
2021/11/17 12:17:40;;;;;;;27.00;15.37;;;8.40;99.90;;;;;;5015042;28;20422;-37
2021/11/17 12:20:24;;;;;;;27.60;16.10;;;8.50;99.90;;;;;;5008422;28;20846;-36
2021/11/17 12:22:52;;;;;;;31.87;17.30;;;8.50;99.90;;;;;;5021779;28;20419;-36
2021/11/17 12:25:24;;;;;;;33.73;20.07;;;8.40;99.90;;;;;;5028020;28;20822;-36
2021/11/17 12:27:58;;;;;;;34.07;18.07;;;8.50;99.90;;;;;;5025492;28;20437;-36
2021/11/17 12:30:54;;;;;;;32.60;18.10;;;8.40;99.90;;;;;;5016325;28;20426;-36
2021/11/17 12:33:38;;;;;;;30.33;16.00;;;8.50;99.90;;;;;;5006052;28;20488;-36
2021/11/17 12:36:07;;;;;;;32.57;18.77;;;8.50;99.90;;;;;;5007637;28;20777;-36
2021/11/17 12:38:35;;;;;;;31.53;18.20;;;8.50;99.90;;;;;;5007619;28;20634;-36
2021/11/17 12:41:05;;;;;;;32.00;17.50;;;8.70;99.90;;;;;;5007736;28;20422;-36
2021/11/17 12:43:36;;;;;;;34.40;18.40;;;8.70;99.90;;;;;;5011923;28;20948;-36
2021/11/17 12:46:29;;;;;;;30.40;16.77;;;8.60;99.90;;;;;;5024399;28;20451;-36
2021/11/17 12:49:13;;;;;;;24.17;14.97;;;8.50;99.90;;;;;;5020161;28;20792;-36
2021/11/17 12:51:53;;;;;;;28.03;16.90;;;8.60;99.90;;;;;;5017032;28;20963;-36
2021/11/17 12:54:29;;;;;;;28.93;16.67;;;8.60;99.90;;;;;;5007442;28;21047;-36
2021/11/17 12:57:00;;;;;;;26.13;15.93;;;8.60;99.90;;;;;;5007610;28;20755;-36
2021/11/17 12:59:43;;;;;;;30.13;17.20;;;8.60;99.90;;;;;;5020337;28;20591;-36
2021/11/17 13:02:34;;;;;;;30.57;18.13;;;8.70;99.90;;;;;;5013395;28;20422;-36
2021/11/17 13:05:31;;;;;;;29.67;16.53;;;8.50;99.90;;;;;;5007096;28;20465;-36
2021/11/17 13:08:11;;;;;;;26.83;16.10;;;8.30;99.90;;;;;;5015201;28;21040;-36
2021/11/17 13:11:09;;;;;;;25.70;15.93;;;8.40;99.90;;;;;;5007559;28;20422;-36
2021/11/17 13:13:38;;;;;;;31.83;16.10;;;8.40;99.90;;;;;;5007780;28;20463;-36
2021/11/17 13:16:11;;;;;;;26.70;15.50;;;8.40;99.90;;;;;;5020213;28;20456;-36
2021/11/17 13:18:51;;;;;;;31.37;16.37;;;8.50;99.90;;;;;;5006415;28;20852;-36
2021/11/17 13:21:26;;;;;;;27.87;16.17;;;8.70;99.90;;;;;;5010530;28;20421;-36
2021/11/17 13:24:20;;;;;;;32.43;16.70;;;8.30;99.90;;;;;;5006643;28;20417;-36
2021/11/17 13:27:10;;;;;;;33.03;16.63;;;8.50;99.90;;;;;;5007228;28;20418;-36
2021/11/17 13:29:57;;;;;;;26.70;15.97;;;8.50;99.90;;;;;;5016887;28;20472;-36
2021/11/17 13:32:38;;;;;;;34.23;19.00;;;8.50;99.90;;;;;;5015721;28;20421;-36
2021/11/17 13:35:24;;;;;;;28.77;14.10;;;8.70;99.90;;;;;;5006811;28;20450;-36
2021/11/17 13:38:06;;;;;;;27.40;16.30;;;8.50;99.90;;;;;;5019345;28;20807;-36
2021/11/17 13:40:32;;;;;;;23.30;15.03;;;8.60;99.90;;;;;;5006883;28;20912;-36
2021/11/17 13:42:58;;;;;;;24.90;15.00;;;8.70;99.90;;;;;;5011668;28;21559;-36
2021/11/17 13:45:29;;;;;;;25.53;15.70;;;8.80;99.90;;;;;;5025399;28;20197;-36
2021/11/17 13:47:56;;;;;;;28.73;17.07;;;8.70;99.90;;;;;;5024659;28;20432;-36
2021/11/17 13:50:24;;;;;;;24.77;14.80;;;8.70;99.90;;;;;;5016810;28;20470;-36
2021/11/17 13:52:51;;;;;;;23.63;14.77;;;8.70;99.90;;;;;;5018757;28;20426;-36
2021/11/17 13:55:20;;;;;;;23.40;15.07;;;9.00;99.90;;;;;;5010730;28;20457;-36
2021/11/17 13:57:48;;;;;;;26.47;15.73;;;8.90;99.90;;;;;;5010746;28;20864;-36
2021/11/17 14:00:15;;;;;;;23.10;15.23;;;8.80;99.90;;;;;;5011945;28;20465;-36
2021/11/17 14:02:44;;;;;;;23.57;14.10;;;8.90;99.90;;;;;;5020250;28;20421;-36
2021/11/17 14:05:09;;;;;;;23.13;14.30;;;8.70;99.90;;;;;;5010835;28;20426;-36
2021/11/17 14:07:35;;;;;;;20.60;15.20;;;8.90;99.90;;;;;;5013193;28;20820;-36
2021/11/17 14:10:05;;;;;;;22.77;15.30;;;8.70;99.90;;;;;;5009349;28;20203;-35
2021/11/17 14:12:30;;;;;;;23.57;14.43;;;8.80;99.90;;;;;;5010761;28;20262;-36
2021/11/17 14:14:56;;;;;;;19.87;13.77;;;8.70;99.90;;;;;;5017000;28;20441;-36
2021/11/17 14:17:22;;;;;;;20.07;12.67;;;8.70;99.90;;;;;;5017773;28;20249;-36
2021/11/17 14:19:48;;;;;;;20.83;14.37;;;8.70;99.90;;;;;;5010375;28;20191;-36
2021/11/17 14:22:14;;;;;;;25.17;15.43;;;8.60;99.90;;;;;;5018771;28;20213;-36
2021/11/17 14:24:40;;;;;;;23.43;13.67;;;8.80;99.90;;;;;;5013347;28;20425;-36
2021/11/17 14:27:08;;;;;;;25.10;14.43;;;8.90;99.90;;;;;;5010744;28;20925;-36
2021/11/17 14:29:46;;;;;;;24.83;15.27;;;8.70;99.90;;;;;;5018150;28;20199;-36
2021/11/17 14:32:16;;;;;;;25.10;15.00;;;8.70;99.90;;;;;;5015039;28;20764;-36
2021/11/17 14:34:42;;;;;;;27.10;15.70;;;8.80;99.90;;;;;;5009108;28;20448;-36
2021/11/17 14:37:09;;;;;;;27.30;16.20;;;8.80;99.90;;;;;;5017104;28;20827;-36
2021/11/17 14:39:39;;;;;;;30.40;16.20;;;8.60;99.90;;;;;;5011134;28;20505;-36
2021/11/17 14:42:06;;;;;;;26.70;17.67;;;8.70;99.90;;;;;;5010214;28;20797;-36
2021/11/17 14:44:33;;;;;;;29.23;16.90;;;8.90;99.90;;;;;;5022202;28;20602;-36
2021/11/17 14:46:59;;;;;;;27.60;16.20;;;8.80;99.90;;;;;;5023409;28;20627;-36
2021/11/17 14:49:25;;;;;;;32.60;18.07;;;8.80;99.90;;;;;;5010340;28;20986;-36
2021/11/17 14:51:51;;;;;;;32.47;18.37;;;8.80;99.90;;;;;;5013249;28;20757;-36
2021/11/17 14:54:17;;;;;;;31.13;18.53;;;8.90;99.90;;;;;;5008566;28;20614;-36
2021/11/17 14:56:44;;;;;;;32.33;18.50;;;8.80;99.90;;;;;;5008387;28;20477;-36
2021/11/17 14:59:10;;;;;;;35.33;18.50;;;8.80;99.90;;;;;;5016633;28;20436;-36
2021/11/17 15:01:38;;;;;;;40.33;22.33;;;8.70;99.90;;;;;;5024829;28;20560;-36
2021/11/17 15:04:04;;;;;;;38.67;21.97;;;8.80;99.90;;;;;;5008878;28;20418;-36
2021/11/17 15:06:33;;;;;;;43.07;21.83;;;8.90;99.90;;;;;;5009749;28;20963;-36
2021/11/17 15:09:00;;;;;;;47.33;23.23;;;8.80;99.90;;;;;;5021850;28;20422;-36
2021/11/17 15:11:26;;;;;;;43.57;22.67;;;8.90;99.90;;;;;;5009901;28;20501;-37
2021/11/17 15:13:53;;;;;;;48.17;24.00;;;8.90;99.90;;;;;;5014901;28;20433;-36
2021/11/17 15:16:21;;;;;;;46.13;23.97;;;9.10;99.90;;;;;;5019614;28;20465;-36
2021/11/17 15:18:48;;;;;;;55.97;25.90;;;9.10;99.90;;;;;;5015126;28;20872;-36
2021/11/17 15:21:17;;;;;;;48.30;24.93;;;9.10;99.90;;;;;;5009678;28;20422;-36
2021/11/17 15:23:45;;;;;;;51.73;26.27;;;9.10;99.90;;;;;;5017378;28;20441;-36
2021/11/17 15:26:11;;;;;;;47.50;25.30;;;8.90;99.90;;;;;;5009699;28;20433;-36
2021/11/17 15:28:49;;;;;;;52.63;25.97;;;8.90;99.90;;;;;;5008473;28;20867;-36
2021/11/17 15:31:19;;;;;;;53.33;25.30;;;9.10;99.90;;;;;;5018881;28;20472;-36
2021/11/17 15:33:45;;;;;;;51.70;24.67;;;8.90;99.90;;;;;;5025212;28;20421;-36
2021/11/17 15:36:12;;;;;;;49.80;26.80;;;8.90;99.90;;;;;;5010892;28;20685;-36
2021/11/17 15:38:40;;;;;;;50.43;25.40;;;8.90;99.90;;;;;;5013392;28;20956;-36
2021/11/17 15:41:09;;;;;;;45.87;25.13;;;8.90;99.90;;;;;;5009002;28;20422;-36
2021/11/17 15:43:36;;;;;;;50.27;25.60;;;8.90;99.90;;;;;;5003316;28;20427;-36
2021/11/17 15:46:03;;;;;;;54.83;28.80;;;9.10;99.90;;;;;;5026603;28;20810;-36
2021/11/17 15:48:30;;;;;;;52.33;27.93;;;9.00;99.90;;;;;;5020529;28;20442;-35